CheckWX is a tool to help pilots better visualize weather data.  It is not intended as a substitute for an official pre-flight weather briefing.

19:29:41 UTC

KTWF METAR
Joslin Field - Magic Valley Regional Airport
Twin Falls, Idaho, USA
Current

20 mins ago

KTWF 181910Z 27014KT 10SM OVC016 M04/M07 A3008 RMK AO2 T10391067
Observed
Feb-18 @ 19:10 UTC
Wind
  • 270° at 14 KTS
Visibility
10 SM
Flight Rules
MVFR
Cloud Levels
  • Overcast at 1,600' AGL
Temperature
-4°C / 25°F
Dewpoint
-7°C / 19°F
Humidity
80%
Altimeter
30.08" Hg
Pressure
1018.62 hPa
Previous

37 mins ago

KTWF 181853Z 27014KT 10SM OVC014 M04/M07 A3008 RMK AO2 SLP213 T10441067
Observed
Feb-18 @ 18:53 UTC
Wind
  • 270° at 14 KTS
Visibility
10 SM
Flight Rules
MVFR
Cloud Levels
  • Overcast at 1,400' AGL
Temperature
-4°C / 25°F
Dewpoint
-7°C / 19°F
Humidity
80%
Altimeter
30.08" Hg
Pressure
1021.3 hPa
Previous

2 hours ago

KTWF 181753Z 26015KT 10SM OVC011 M05/M07 A3007 RMK AO2 SLP205 I6001 T10501072 11044 21061 51011
Observed
Feb-18 @ 17:53 UTC
Wind
  • 260° at 15 KTS
Visibility
10 SM
Flight Rules
MVFR
Cloud Levels
  • Overcast at 1,100' AGL
Temperature
-5°C / 23°F
Dewpoint
-7°C / 19°F
Humidity
86%
Altimeter
30.07" Hg
Pressure
1020.5 hPa